Terminal Aerodrome Forecast
Issued by NWS Shreveport, LA

Home | Current Version | Previous Version | Text Only | Print | Product List | Glossary On
Versions: 1 2 3 4 5 6 7 8 9 10 11 12 13 14 15 16 17 18 19 20
872
FTUS44 KSHV 170036 RRA
TAFTYR
TAF
KTYR 170036Z 1701/1724 VRB04KT 3SM -RA BR OVC035
     FM170300 33004KT 6SM BR BKN040 OVC070
      TEMPO 1703/1706 5SM -RA BR BKN030 OVC050
     FM171000 35005KT P6SM VCSH SCT030 BKN050 BKN080
     FM171700 01005KT P6SM OVC025
     FM172000 01006KT P6SM VCTS OVC050CB
     FM172200 01006KT P6SM -TSRA OVC025CB=

USA.gov is the U.S. government's official web portal to all federal, state and local government web resources and services.